BAW213 EGLL-KBOS
Flight info
| Callsign | BAW213 |
|---|---|
| Flight time | N/A |
| Altitude | 40000 |
| Route | CPT L9 BUCGO DCT FELCA DCT NICXI DCT BAKUR DCT DOGAL/M084F400 NATD NEEKO/N0486F400 N616B TOPPS DCT AJJAY OOSHN5 |
| Aircraft | A388/J-SADE2E3FGHIJ3J4J5M1RWXY/LB1D1 |
Departure
| Time | N/A |
|---|---|
| Airport | London Heathrow Airport (EGLL) |
Arrival
| Time | 2026-05-05 17:54 |
|---|---|
| Airport | Boston Logan International Airport (KBOS) |
| Time | Latitude | Longitude | Altitude | Speed | Heading |
|---|---|---|---|---|---|
| 2026-05-05 17:11 | 45.31716 | -67.76695 | 39819 ft | 437 kts | 224° |
| 2026-05-05 17:11 | 45.29368 | -67.79462 | 39817 ft | 438 kts | 223° |
| 2026-05-05 17:12 | 45.24717 | -67.84964 | 39825 ft | 438 kts | 224° |
| 2026-05-05 17:12 | 45.20057 | -67.90542 | 39812 ft | 438 kts | 224° |
| 2026-05-05 17:13 | 45.15391 | -67.96106 | 39830 ft | 438 kts | 223° |
| 2026-05-05 17:13 | 45.10724 | -68.01651 | 39837 ft | 438 kts | 223° |
| 2026-05-05 17:14 | 45.06085 | -68.07150 | 39845 ft | 437 kts | 223° |
| 2026-05-05 17:14 | 45.01421 | -68.12666 | 39836 ft | 437 kts | 223° |
| 2026-05-05 17:15 | 44.96752 | -68.18176 | 39836 ft | 437 kts | 223° |
| 2026-05-05 17:15 | 44.92087 | -68.23670 | 39847 ft | 437 kts | 223° |
| 2026-05-05 17:16 | 44.87414 | -68.29162 | 39847 ft | 437 kts | 223° |
| 2026-05-05 17:16 | 44.82730 | -68.34654 | 39842 ft | 438 kts | 223° |
| 2026-05-05 17:17 | 44.78042 | -68.40139 | 39846 ft | 439 kts | 223° |
| 2026-05-05 17:17 | 44.73338 | -68.45630 | 39828 ft | 440 kts | 223° |
| 2026-05-05 17:18 | 44.68650 | -68.51091 | 39832 ft | 440 kts | 223° |
| 2026-05-05 17:18 | 44.63933 | -68.56573 | 39832 ft | 440 kts | 223° |
| 2026-05-05 17:19 | 44.59203 | -68.62060 | 39835 ft | 440 kts | 223° |
| 2026-05-05 17:19 | 44.54480 | -68.67525 | 39835 ft | 440 kts | 223° |
| 2026-05-05 17:20 | 44.49755 | -68.72982 | 39832 ft | 440 kts | 223° |
| 2026-05-05 17:20 | 44.45018 | -68.78441 | 39848 ft | 441 kts | 223° |
| 2026-05-05 17:21 | 44.40301 | -68.83866 | 39854 ft | 441 kts | 223° |
| 2026-05-05 17:22 | 44.33176 | -68.92035 | 39857 ft | 442 kts | 223° |
| 2026-05-05 17:22 | 44.28420 | -68.97473 | 39853 ft | 442 kts | 223° |
| 2026-05-05 17:23 | 44.23656 | -69.02908 | 39858 ft | 442 kts | 223° |
| 2026-05-05 17:23 | 44.18893 | -69.08332 | 39850 ft | 442 kts | 223° |
| 2026-05-05 17:24 | 44.14122 | -69.13752 | 39854 ft | 443 kts | 223° |
| 2026-05-05 17:24 | 44.09338 | -69.19176 | 39866 ft | 443 kts | 223° |
| 2026-05-05 17:25 | 44.04577 | -69.24560 | 39856 ft | 443 kts | 222° |
| 2026-05-05 17:25 | 43.99785 | -69.29970 | 39862 ft | 443 kts | 222° |
| 2026-05-05 17:26 | 43.94994 | -69.35367 | 39866 ft | 443 kts | 222° |
| 2026-05-05 17:26 | 43.90235 | -69.40716 | 39753 ft | 441 kts | 222° |
| 2026-05-05 17:26 | 43.87857 | -69.43383 | 39165 ft | 441 kts | 222° |
| 2026-05-05 17:27 | 43.85455 | -69.46078 | 38113 ft | 447 kts | 222° |
| 2026-05-05 17:27 | 43.83057 | -69.48766 | 37068 ft | 449 kts | 222° |
| 2026-05-05 17:27 | 43.80605 | -69.51508 | 36359 ft | 445 kts | 222° |
| 2026-05-05 17:27 | 43.78219 | -69.54170 | 35941 ft | 436 kts | 222° |
| 2026-05-05 17:28 | 43.75852 | -69.56768 | 35536 ft | 435 kts | 219° |
| 2026-05-05 17:28 | 43.73351 | -69.59070 | 34603 ft | 441 kts | 213° |
| 2026-05-05 17:28 | 43.70601 | -69.61033 | 33715 ft | 446 kts | 207° |
| 2026-05-05 17:28 | 43.67717 | -69.62566 | 33072 ft | 442 kts | 201° |
| 2026-05-05 17:29 | 43.64799 | -69.63832 | 32728 ft | 436 kts | 201° |
| 2026-05-05 17:29 | 43.61904 | -69.65130 | 32463 ft | 437 kts | 201° |
| 2026-05-05 17:29 | 43.59018 | -69.66440 | 31967 ft | 435 kts | 201° |
| 2026-05-05 17:29 | 43.56161 | -69.67735 | 31421 ft | 429 kts | 201° |
| 2026-05-05 17:30 | 43.53345 | -69.69008 | 30880 ft | 422 kts | 201° |
| 2026-05-05 17:30 | 43.50578 | -69.70255 | 30358 ft | 414 kts | 201° |
| 2026-05-05 17:30 | 43.47863 | -69.71476 | 29802 ft | 407 kts | 200° |
| 2026-05-05 17:30 | 43.45226 | -69.72660 | 29275 ft | 399 kts | 200° |
| 2026-05-05 17:31 | 43.42614 | -69.73832 | 28785 ft | 391 kts | 200° |
| 2026-05-05 17:31 | 43.40045 | -69.74984 | 28294 ft | 384 kts | 201° |
| 2026-05-05 17:31 | 43.37528 | -69.76112 | 27801 ft | 377 kts | 201° |
| 2026-05-05 17:31 | 43.35055 | -69.77220 | 27325 ft | 371 kts | 200° |
| 2026-05-05 17:32 | 43.32611 | -69.78314 | 26842 ft | 368 kts | 200° |
| 2026-05-05 17:32 | 43.30180 | -69.79401 | 26368 ft | 366 kts | 200° |
| 2026-05-05 17:32 | 43.27754 | -69.80485 | 25890 ft | 364 kts | 200° |
| 2026-05-05 17:32 | 43.25355 | -69.81555 | 25416 ft | 361 kts | 200° |
| 2026-05-05 17:33 | 43.22975 | -69.82615 | 24947 ft | 359 kts | 200° |
| 2026-05-05 17:33 | 43.20606 | -69.83670 | 24470 ft | 355 kts | 200° |
| 2026-05-05 17:33 | 43.18289 | -69.84700 | 24001 ft | 353 kts | 200° |
| 2026-05-05 17:33 | 43.15951 | -69.85741 | 23542 ft | 351 kts | 200° |
| 2026-05-05 17:34 | 43.13633 | -69.86771 | 23050 ft | 347 kts | 200° |
| 2026-05-05 17:34 | 43.11348 | -69.87784 | 22583 ft | 343 kts | 200° |
| 2026-05-05 17:34 | 43.09079 | -69.88791 | 22111 ft | 341 kts | 200° |
| 2026-05-05 17:34 | 43.06833 | -69.89787 | 21660 ft | 338 kts | 200° |
| 2026-05-05 17:35 | 43.04643 | -69.90757 | 21218 ft | 335 kts | 200° |
| 2026-05-05 17:35 | 43.02394 | -69.91752 | 20754 ft | 332 kts | 200° |
| 2026-05-05 17:35 | 43.00233 | -69.92709 | 20306 ft | 330 kts | 200° |
| 2026-05-05 17:35 | 42.98060 | -69.93670 | 19850 ft | 326 kts | 200° |
| 2026-05-05 17:36 | 42.95901 | -69.94624 | 19403 ft | 324 kts | 200° |
| 2026-05-05 17:36 | 42.93767 | -69.95567 | 18955 ft | 322 kts | 201° |
| 2026-05-05 17:36 | 42.91647 | -69.96503 | 18510 ft | 319 kts | 201° |
| 2026-05-05 17:36 | 42.89541 | -69.97432 | 18070 ft | 316 kts | 201° |
| 2026-05-05 17:37 | 42.87453 | -69.98352 | 17595 ft | 314 kts | 201° |
| 2026-05-05 17:37 | 42.86078 | -69.98958 | 17318 ft | 313 kts | 201° |
| 2026-05-05 17:37 | 42.83304 | -70.00179 | 16724 ft | 311 kts | 201° |
| 2026-05-05 17:37 | 42.81245 | -70.01085 | 16306 ft | 310 kts | 201° |
| 2026-05-05 17:38 | 42.79191 | -70.01988 | 15871 ft | 309 kts | 201° |
| 2026-05-05 17:38 | 42.77177 | -70.02872 | 15439 ft | 307 kts | 201° |
| 2026-05-05 17:38 | 42.75148 | -70.03767 | 15020 ft | 306 kts | 202° |
| 2026-05-05 17:38 | 42.73143 | -70.04734 | 14599 ft | 303 kts | 204° |
| 2026-05-05 17:39 | 42.71170 | -70.05731 | 14174 ft | 301 kts | 204° |
| 2026-05-05 17:39 | 42.69192 | -70.06734 | 13840 ft | 308 kts | 204° |
| 2026-05-05 17:39 | 42.67145 | -70.07793 | 13399 ft | 319 kts | 208° |
| 2026-05-05 17:39 | 42.65321 | -70.09455 | 12952 ft | 314 kts | 226° |
| 2026-05-05 17:40 | 42.64022 | -70.11781 | 12547 ft | 306 kts | 242° |
| 2026-05-05 17:40 | 42.63163 | -70.14359 | 12262 ft | 292 kts | 245° |
| 2026-05-05 17:40 | 42.62342 | -70.16797 | 12132 ft | 276 kts | 244° |
| 2026-05-05 17:40 | 42.61636 | -70.19179 | 11778 ft | 275 kts | 257° |
| 2026-05-05 17:41 | 42.61337 | -70.21759 | 11367 ft | 277 kts | 259° |
| 2026-05-05 17:41 | 42.61051 | -70.24371 | 10545 ft | 284 kts | 259° |
| 2026-05-05 17:41 | 42.60755 | -70.27019 | 9974 ft | 277 kts | 258° |
| 2026-05-05 17:41 | 42.60475 | -70.29510 | 9868 ft | 259 kts | 258° |
| 2026-05-05 17:42 | 42.60209 | -70.31858 | 9751 ft | 244 kts | 258° |
| 2026-05-05 17:42 | 42.59955 | -70.34067 | 9442 ft | 237 kts | 258° |
| 2026-05-05 17:42 | 42.59697 | -70.36277 | 9211 ft | 236 kts | 258° |
| 2026-05-05 17:42 | 42.59438 | -70.38484 | 8980 ft | 237 kts | 257° |
| 2026-05-05 17:43 | 42.59181 | -70.40687 | 8716 ft | 237 kts | 257° |
| 2026-05-05 17:43 | 42.58924 | -70.42888 | 8441 ft | 236 kts | 257° |
| 2026-05-05 17:43 | 42.58669 | -70.45079 | 8173 ft | 235 kts | 257° |
| 2026-05-05 17:43 | 42.58496 | -70.46558 | 7994 ft | 235 kts | 257° |
| 2026-05-05 17:44 | 42.58242 | -70.48738 | 7709 ft | 233 kts | 257° |
| 2026-05-05 17:44 | 42.57988 | -70.50909 | 7441 ft | 232 kts | 257° |
| 2026-05-05 17:44 | 42.57737 | -70.53049 | 7177 ft | 232 kts | 257° |
| 2026-05-05 17:44 | 42.57482 | -70.55218 | 6909 ft | 231 kts | 258° |
| 2026-05-05 17:45 | 42.57229 | -70.57369 | 6639 ft | 230 kts | 258° |
| 2026-05-05 17:45 | 42.56978 | -70.59507 | 6377 ft | 229 kts | 257° |
| 2026-05-05 17:45 | 42.56725 | -70.61642 | 6098 ft | 229 kts | 257° |
| 2026-05-05 17:45 | 42.56474 | -70.63770 | 5833 ft | 228 kts | 257° |
| 2026-05-05 17:46 | 42.56223 | -70.65887 | 5568 ft | 228 kts | 257° |
| 2026-05-05 17:46 | 42.55970 | -70.68014 | 5301 ft | 229 kts | 257° |
| 2026-05-05 17:46 | 42.55718 | -70.70138 | 5033 ft | 228 kts | 257° |
| 2026-05-05 17:46 | 42.55464 | -70.72270 | 4764 ft | 228 kts | 257° |
| 2026-05-05 17:47 | 42.55216 | -70.74357 | 4553 ft | 223 kts | 257° |
| 2026-05-05 17:47 | 42.54979 | -70.76366 | 4458 ft | 211 kts | 257° |
| 2026-05-05 17:47 | 42.54752 | -70.78288 | 4371 ft | 200 kts | 257° |
| 2026-05-05 17:47 | 42.54537 | -70.80099 | 4196 ft | 189 kts | 257° |
| 2026-05-05 17:48 | 42.54328 | -70.81838 | 3889 ft | 185 kts | 256° |
| 2026-05-05 17:48 | 42.54129 | -70.83493 | 3810 ft | 170 kts | 256° |
| 2026-05-05 17:48 | 42.53949 | -70.85013 | 3617 ft | 154 kts | 256° |
| 2026-05-05 17:48 | 42.53774 | -70.86454 | 3092 ft | 158 kts | 256° |
| 2026-05-05 17:49 | 42.53589 | -70.87943 | 2865 ft | 162 kts | 256° |
| 2026-05-05 17:49 | 42.53406 | -70.89479 | 2879 ft | 167 kts | 255° |
| 2026-05-05 17:49 | 42.53188 | -70.91032 | 2872 ft | 165 kts | 245° |
| 2026-05-05 17:49 | 42.52585 | -70.92271 | 2884 ft | 159 kts | 220° |
| 2026-05-05 17:50 | 42.51633 | -70.93101 | 2902 ft | 161 kts | 207° |
| 2026-05-05 17:50 | 42.50589 | -70.93682 | 2719 ft | 164 kts | 202° |
| 2026-05-05 17:50 | 42.49512 | -70.94199 | 2505 ft | 168 kts | 201° |
| 2026-05-05 17:50 | 42.48454 | -70.94716 | 2296 ft | 158 kts | 201° |
| 2026-05-05 17:51 | 42.47404 | -70.95226 | 2093 ft | 155 kts | 201° |
| 2026-05-05 17:51 | 42.46449 | -70.95685 | 1894 ft | 141 kts | 202° |
| 2026-05-05 17:51 | 42.45520 | -70.96136 | 1715 ft | 140 kts | 201° |
| 2026-05-05 17:51 | 42.44591 | -70.96590 | 1548 ft | 137 kts | 201° |
| 2026-05-05 17:52 | 42.43704 | -70.97021 | 1366 ft | 141 kts | 203° |
| 2026-05-05 17:52 | 42.42793 | -70.97456 | 1166 ft | 134 kts | 200° |
| 2026-05-05 17:52 | 42.41948 | -70.97873 | 986 ft | 125 kts | 199° |
| 2026-05-05 17:52 | 42.41163 | -70.98248 | 823 ft | 118 kts | 199° |
| 2026-05-05 17:53 | 42.40341 | -70.98654 | 686 ft | 129 kts | 198° |
| 2026-05-05 17:53 | 42.39550 | -70.99036 | 509 ft | 120 kts | 198° |
| 2026-05-05 17:53 | 42.38766 | -70.99403 | 349 ft | 117 kts | 198° |
| 2026-05-05 17:53 | 42.38008 | -70.99778 | 179 ft | 119 kts | 198° |
| 2026-05-05 17:54 | 42.37201 | -71.00172 | 51 ft | 123 kts | 199° |
| 2026-05-05 17:54 | 42.36497 | -71.00511 | 31 ft | 90 kts | 200° |
| 2026-05-05 17:54 | 42.36028 | -71.00737 | 32 ft | 56 kts | 200° |
| 2026-05-05 17:54 | 42.35734 | -71.00877 | 30 ft | 34 kts | 204° |
| 2026-05-05 17:55 | 42.35556 | -71.00965 | 30 ft | 23 kts | 199° |
| 2026-05-05 17:55 | 42.35418 | -71.01031 | 30 ft | 20 kts | 200° |
| 2026-05-05 17:55 | 42.35304 | -71.01088 | 31 ft | 16 kts | 200° |
| 2026-05-05 17:55 | 42.35209 | -71.01135 | 30 ft | 12 kts | 205° |
| 2026-05-05 17:56 | 42.35196 | -71.01192 | 30 ft | 17 kts | 291° |
| 2026-05-05 17:56 | 42.35240 | -71.01286 | 31 ft | 10 kts | 306° |
| 2026-05-05 17:56 | 42.35289 | -71.01376 | 31 ft | 14 kts | 306° |
| 2026-05-05 17:56 | 42.35356 | -71.01502 | 31 ft | 18 kts | 305° |
| 2026-05-05 17:57 | 42.35436 | -71.01655 | 31 ft | 22 kts | 305° |
| 2026-05-05 17:57 | 42.35549 | -71.01713 | 31 ft | 21 kts | 15° |
| 2026-05-05 17:57 | 42.35707 | -71.01636 | 30 ft | 27 kts | 20° |
| 2026-05-05 17:57 | 42.35902 | -71.01539 | 30 ft | 33 kts | 20° |
| 2026-05-05 17:58 | 42.36130 | -71.01432 | 30 ft | 36 kts | 19° |
| 2026-05-05 17:58 | 42.36379 | -71.01313 | 31 ft | 39 kts | 19° |
| 2026-05-05 17:58 | 42.36583 | -71.01215 | 31 ft | 29 kts | 20° |
| 2026-05-05 17:58 | 42.36766 | -71.01145 | 31 ft | 25 kts | 346° |
| 2026-05-05 17:59 | 42.36899 | -71.01294 | 31 ft | 27 kts | 316° |
| 2026-05-05 17:59 | 42.37035 | -71.01477 | 31 ft | 28 kts | 314° |
| 2026-05-05 17:59 | 42.37180 | -71.01667 | 31 ft | 30 kts | 315° |
| 2026-05-05 17:59 | 42.37279 | -71.01801 | 30 ft | 10 kts | 315° |
| 2026-05-05 18:00 | 42.37309 | -71.01855 | 31 ft | 3 kts | 253° |
| 2026-05-05 18:00 | 42.37256 | -71.01925 | 31 ft | 17 kts | 227° |
| 2026-05-05 18:00 | 42.37237 | -71.02069 | 31 ft | 17 kts | 274° |
| 2026-05-05 18:00 | 42.37190 | -71.02193 | 31 ft | 14 kts | 220° |
| 2026-05-05 18:01 | 42.37148 | -71.02242 | 31 ft | 9 kts | 221° |
| 2026-05-05 18:01 | 42.37131 | -71.02261 | 31 ft | 3 kts | 213° |
| 2026-05-05 18:01 | 42.37104 | -71.02269 | 31 ft | 6 kts | 174° |
| 2026-05-05 18:01 | 42.37070 | -71.02261 | 27 ft | 1 kts | 149° |
| 2026-05-05 18:02 | 42.37060 | -71.02249 | 29 ft | 4 kts | 140° |
| 2026-05-05 18:02 | 42.37056 | -71.02245 | 31 ft | 1 kts | 145° |
| 2026-05-05 18:02 | 42.37052 | -71.02241 | 31 ft | 1 kts | 143° |
| 2026-05-05 18:02 | 42.37050 | -71.02239 | 31 ft | 1 kts | 143° |